Time;durP1;ratioP1;P1;durP2;ratioP2;P2;SDS_P1;SDS_P2;PMS_P1;PMS_P2;Temp;Humidity;BMP_temperature;BMP_pressure;BME280_temperature;BME280_humidity;BME280_pressure;Samples;Min_cycle;Max_cycle;Signal;HPM_P1;HPM_P2
2023/03/28 00:02:11;;;;;;;6.23;3.77;;;;;;;4.49;56.23;96888.34;4989736;28;20613;-67
2023/03/28 00:04:37;;;;;;;5.47;3.60;;;;;;;4.60;55.94;96886.47;4989639;28;20169;-68
2023/03/28 00:07:04;;;;;;;4.20;3.73;;;;;;;4.55;56.03;96893.47;4989142;28;20266;-66
2023/03/28 00:09:30;;;;;;;7.23;3.67;;;;;;;4.62;55.77;96893.38;4988954;28;20439;-67
2023/03/28 00:11:56;;;;;;;4.20;3.67;;;;;;;4.41;56.41;96897.09;4989492;28;20416;-68
2023/03/28 00:14:21;;;;;;;4.00;3.60;;;;;;;4.35;56.80;96893.72;4989419;28;20494;-66
2023/03/28 00:16:46;;;;;;;4.80;4.07;;;;;;;4.26;56.71;96899.88;4988940;28;20196;-68
2023/03/28 00:19:15;;;;;;;5.53;4.10;;;;;;;4.39;56.67;96903.19;4989156;28;20609;-67
2023/03/28 00:21:47;;;;;;;5.80;4.00;;;;;;;4.32;56.60;96899.78;4989216;28;20172;-68
2023/03/28 00:24:14;;;;;;;4.80;4.30;;;;;;;4.47;56.55;96901.38;4989307;28;20420;-67
2023/03/28 00:26:42;;;;;;;7.80;4.10;;;;;;;4.55;56.23;96907.34;4989049;28;20456;-66
2023/03/28 00:29:09;;;;;;;6.00;4.63;;;;;;;4.44;56.12;96907.47;4989128;28;21112;-67
2023/03/28 00:31:36;;;;;;;5.23;4.33;;;;;;;4.56;56.26;96913.38;4989133;28;20411;-66
2023/03/28 00:34:01;;;;;;;4.03;3.63;;;;;;;4.37;56.54;96911.03;4989038;28;20769;-64
2023/03/28 00:36:28;;;;;;;6.07;4.20;;;;;;;4.37;56.79;96921.41;4988756;28;20431;-69
2023/03/28 00:38:57;;;;;;;4.50;4.10;;;;;;;4.48;56.31;96917.81;4988722;28;20192;-67
2023/03/28 00:41:25;;;;;;;4.40;3.60;;;;;;;4.35;56.09;96928.38;4988717;28;20434;-66
2023/03/28 00:43:54;;;;;;;6.47;3.83;;;;;;;4.26;57.10;96925.88;4988746;28;20478;-66
2023/03/28 00:46:37;;;;;;;6.60;3.97;;;;;;;4.37;56.85;96931.81;4988252;28;20456;-67
2023/03/28 00:49:11;;;;;;;7.20;4.07;;;;;;;4.34;56.40;96943.97;4987075;28;20428;-67
2023/03/28 00:51:43;;;;;;;6.10;4.30;;;;;;;4.34;56.87;96943.97;4988628;28;20518;-65
2023/03/28 00:54:12;;;;;;;4.53;4.07;;;;;;;4.41;56.56;96936.06;4988556;28;20547;-67
2023/03/28 00:56:42;;;;;;;6.50;3.93;;;;;;;4.43;56.09;96943.88;4988280;28;20428;-66
2023/03/28 00:59:13;;;;;;;5.37;4.60;;;;;;;4.46;56.26;96936.03;4988555;28;20412;-67
2023/03/28 01:01:38;;;;;;;3.73;2.90;;;;;;;4.41;55.56;96936.06;4988556;28;20516;-66
2023/03/28 01:04:05;;;;;;;4.07;3.67;;;;;;;4.45;55.71;96929.97;4988488;28;20455;-66
2023/03/28 01:06:35;;;;;;;5.47;3.40;;;;;;;4.52;55.25;96942.91;4987932;28;21006;-65
2023/03/28 01:09:05;;;;;;;5.10;3.60;;;;;;;4.41;55.17;96936.06;4988162;28;20419;-67
2023/03/28 01:11:34;;;;;;;8.93;3.27;;;;;;;4.28;55.80;96937.09;4988141;28;20462;-67
2023/03/28 01:14:03;;;;;;;7.63;3.50;;;;;;;4.40;54.81;96936.09;4988287;28;20416;-68
2023/03/28 01:16:31;;;;;;;8.73;4.23;;;;;;;4.32;55.44;96940.50;4987792;28;20559;-67
2023/03/28 01:19:02;;;;;;;5.90;4.73;;;;;;;4.36;55.87;96948.25;4988235;28;20427;-66
2023/03/28 01:22:25;;;;;;;3.97;3.57;;;;;;;4.33;55.44;96937.91;4987477;28;20761;-66
2023/03/28 01:25:21;;;;;;;6.60;4.20;;;;;;;4.25;55.76;96950.09;4988121;28;20443;-67
2023/03/28 01:28:01;;;;;;;3.87;3.50;;;;;;;4.25;55.78;96957.91;4987661;28;20484;-68
2023/03/28 01:30:48;;;;;;;4.30;3.40;;;;;;;4.29;55.69;96958.75;4987687;28;20416;-64
2023/03/28 01:33:19;;;;;;;6.00;3.60;;;;;;;4.24;55.55;96962.25;4987827;28;20827;-67
2023/03/28 01:36:11;;;;;;;6.97;4.20;;;;;;;4.80;73.83;96959.91;4987586;28;20991;-69
2023/03/28 01:39:03;;;;;;;5.13;4.07;;;;;;;4.52;56.46;96959.38;4987621;28;20417;-70
2023/03/28 01:41:51;;;;;;;4.43;3.80;;;;;;;4.37;55.94;96957.78;4987452;28;20421;-67
2023/03/28 01:44:39;;;;;;;3.67;3.37;;;;;;;4.33;55.86;96963.91;4976813;28;20490;-66
2023/03/28 01:47:32;;;;;;;7.03;4.20;;;;;;;4.14;56.55;96963.22;4982000;28;20472;-65
2023/03/28 01:50:18;;;;;;;10.77;4.33;;;;;;;4.29;55.69;96964.78;4987350;28;20424;-66
2023/03/28 01:53:05;;;;;;;6.30;3.90;;;;;;;4.32;55.60;96967.34;4987230;28;20412;-65
2023/03/28 01:56:08;;;;;;;5.53;4.17;;;;;;;4.18;56.31;96967.50;4987296;28;20416;-68
2023/03/28 01:59:00;;;;;;;4.57;3.93;;;;;;;4.21;56.17;96966.63;4980399;28;20490;-66
2023/03/28 02:01:35;;;;;;;5.50;4.00;;;;;;;4.27;56.12;96969.13;4987294;28;20894;-68
2023/03/28 02:04:06;;;;;;;4.37;3.83;;;;;;;4.26;55.76;96970.03;4987279;28;20418;-66
2023/03/28 02:06:34;;;;;;;3.93;3.30;;;;;;;4.21;55.79;96966.63;4986814;28;20497;-68
2023/03/28 02:09:03;;;;;;;3.80;3.40;;;;;;;4.35;55.16;96969.09;4988600;28;20420;-68
2023/03/28 02:11:32;;;;;;;8.07;4.03;;;;;;;4.19;56.00;96970.97;4994980;28;20506;-67
2023/03/28 02:14:03;;;;;;;3.90;3.57;;;;;;;4.32;55.23;96966.50;4990203;28;20404;-68
2023/03/28 02:16:35;;;;;;;4.50;3.97;;;;;;;4.15;55.36;96964.91;4988896;28;20490;-67
2023/03/28 02:19:02;;;;;;;5.90;4.13;;;;;;;4.20;55.41;96960.53;4987291;28;20416;-67
2023/03/28 02:21:55;;;;;;;5.60;4.17;;;;;;;4.11;55.19;96960.66;4986924;28;20997;-66
2023/03/28 02:24:21;;;;;;;5.90;4.40;;;;;;;4.12;55.70;96966.69;4986984;28;20428;-66
2023/03/28 02:26:47;;;;;;;11.90;4.37;;;;;;;4.12;55.28;96971.91;4986467;28;20475;-66
2023/03/28 02:29:14;;;;;;;5.73;4.00;;;;;;;4.03;55.71;96963.31;4986727;28;20548;-67
2023/03/28 02:31:40;;;;;;;5.93;4.10;;;;;;;4.05;55.52;96965.91;4986578;28;20184;-65
2023/03/28 02:34:07;;;;;;;6.53;4.87;;;;;;;4.18;55.55;96971.81;4986855;28;20404;-68
2023/03/28 02:36:39;;;;;;;7.43;4.20;;;;;;;4.12;55.04;96970.16;4986548;28;20231;-66
2023/03/28 02:39:19;;;;;;;4.40;4.03;;;;;;;3.98;55.33;96969.41;4982411;28;21157;-65
2023/03/28 02:42:05;;;;;;;8.17;5.33;;;;;;;4.11;55.78;96984.03;4982121;28;21127;-67
2023/03/28 02:44:51;;;;;;;6.23;4.43;;;;;;;4.04;55.92;96979.78;4976034;28;21005;-67
2023/03/28 02:47:20;;;;;;;10.00;6.17;;;;;;;3.99;56.16;96985.00;4973459;28;20491;-70
2023/03/28 02:50:18;;;;;;;6.77;4.83;;;;;;;4.03;56.00;96978.88;4982230;28;20441;-66
2023/03/28 02:53:11;;;;;;;7.17;4.10;;;;;;;3.86;56.49;96977.31;4956421;28;20536;-67
2023/03/28 02:55:54;;;;;;;9.20;4.90;;;;;;;4.08;55.68;96983.19;4980199;28;20428;-66
2023/03/28 02:58:33;;;;;;;7.70;4.80;;;;;;;3.97;56.06;96984.16;4978050;28;20431;-67
2023/03/28 03:01:01;;;;;;;6.97;4.57;;;;;;;3.94;56.15;96980.69;4977098;28;20523;-67
2023/03/28 03:03:27;;;;;;;7.13;4.30;;;;;;;3.88;55.95;96983.38;4979786;28;20470;-67
2023/03/28 03:05:53;;;;;;;5.90;4.37;;;;;;;3.75;56.73;96983.44;4982730;28;20472;-69
2023/03/28 03:08:18;;;;;;;7.30;4.80;;;;;;;3.75;56.71;96980.00;4972013;28;20509;-66
2023/03/28 03:10:44;;;;;;;7.47;4.40;;;;;;;3.75;56.96;96974.78;4975128;28;20185;-66
2023/03/28 03:13:10;;;;;;;7.53;4.57;;;;;;;3.79;56.88;96981.69;4966828;28;20220;-66
2023/03/28 03:15:35;;;;;;;5.53;4.20;;;;;;;3.81;57.16;96977.34;4981399;28;20258;-68
2023/03/28 03:18:01;;;;;;;5.60;4.63;;;;;;;3.76;57.08;96995.56;4984769;28;20244;-66
2023/03/28 03:20:32;;;;;;;7.80;5.03;;;;;;;3.76;57.31;96982.59;4973238;28;20223;-66
2023/03/28 03:22:59;;;;;;;5.23;4.43;;;;;;;3.76;57.54;96992.13;4968605;28;20273;-66
2023/03/28 03:25:25;;;;;;;9.93;4.23;;;;;;;3.80;57.21;96981.69;4982708;28;20440;-65
2023/03/28 03:27:51;;;;;;;7.90;4.40;;;;;;;3.79;57.33;96989.47;4983906;28;20533;-67
2023/03/28 03:30:17;;;;;;;6.67;5.37;;;;;;;3.77;57.13;96986.03;4983898;28;20439;-67
2023/03/28 03:32:42;;;;;;;7.03;4.60;;;;;;;3.62;57.41;96989.63;4966521;28;20193;-69
2023/03/28 03:35:08;;;;;;;8.27;5.73;;;;;;;3.75;57.19;96980.84;4980497;28;20181;-67
2023/03/28 03:37:33;;;;;;;9.23;5.10;;;;;;;3.35;58.49;96988.03;4984294;28;20530;-66
2023/03/28 03:39:59;;;;;;;7.17;4.90;;;;;;;3.63;58.06;96988.72;4986170;28;20185;-66
2023/03/28 03:42:25;;;;;;;6.20;4.23;;;;;;;3.69;57.89;96990.44;4986269;28;20288;-66
2023/03/28 03:44:53;;;;;;;5.30;4.00;;;;;;;3.69;57.56;96985.25;4986907;28;20288;-69
2023/03/28 03:47:18;;;;;;;11.63;5.20;;;;;;;3.81;57.18;96975.63;4989343;28;20224;-67
2023/03/28 03:49:44;;;;;;;6.27;5.20;;;;;;;3.72;57.73;96985.22;4989795;28;20466;-66
2023/03/28 03:52:10;;;;;;;6.50;4.73;;;;;;;3.81;57.43;96980.81;4989583;28;20180;-66
2023/03/28 03:54:35;;;;;;;4.73;4.30;;;;;;;3.75;57.14;96985.19;4989181;28;20243;-67
2023/03/28 03:57:01;;;;;;;6.80;4.80;;;;;;;3.73;57.10;96974.84;4989098;28;20192;-66
2023/03/28 03:59:28;;;;;;;6.93;5.67;;;;;;;3.62;57.76;96980.97;4989327;28;20177;-67
2023/03/28 04:01:54;;;;;;;6.47;4.80;;;;;;;3.63;57.31;96985.28;4989451;28;20177;-67
2023/03/28 04:04:20;;;;;;;10.20;5.50;;;;;;;3.63;57.52;96991.31;4989316;28;20885;-66
2023/03/28 04:06:46;;;;;;;8.00;4.73;;;;;;;3.67;57.80;96987.00;4988895;28;20562;-66
2023/03/28 04:09:11;;;;;;;7.60;4.90;;;;;;;3.61;57.71;96982.69;4989129;28;20869;-66
2023/03/28 04:11:37;;;;;;;11.70;5.10;;;;;;;3.72;57.57;96990.41;4989420;28;20177;-68
2023/03/28 04:14:03;;;;;;;19.37;5.30;;;;;;;3.68;57.99;96983.50;4989118;28;20199;-67
2023/03/28 04:16:28;;;;;;;7.97;5.37;;;;;;;3.63;57.81;96990.47;4988067;28;20251;-67
2023/03/28 04:18:54;;;;;;;6.60;5.27;;;;;;;3.75;57.28;96983.44;4989199;28;20431;-66
2023/03/28 04:21:26;;;;;;;8.20;5.17;;;;;;;3.77;57.30;96993.81;4984269;28;20189;-66
2023/03/28 04:23:51;;;;;;;7.80;4.90;;;;;;;3.89;56.98;96985.06;4982947;28;20432;-67
2023/03/28 04:26:19;;;;;;;9.60;4.47;;;;;;;4.58;58.75;96987.91;4976436;28;20499;-67
2023/03/28 04:28:46;;;;;;;9.80;5.77;;;;;;;4.19;56.60;96981.34;4974454;28;20193;-65
2023/03/28 04:31:12;;;;;;;12.83;5.40;;;;;;;4.05;56.65;96984.06;4984180;28;20521;-66
2023/03/28 04:33:38;;;;;;;10.97;5.93;;;;;;;4.01;56.54;96991.00;4987355;28;20447;-66
2023/03/28 04:36:04;;;;;;;7.07;4.47;;;;;;;3.93;57.08;96989.38;4978547;28;20177;-67
2023/03/28 04:38:34;;;;;;;7.80;5.73;;;;;;;3.91;56.93;96991.97;4978395;28;20444;-67
2023/03/28 04:41:00;;;;;;;10.17;6.80;;;;;;;4.01;56.48;96998.81;4975508;28;20203;-67
2023/03/28 04:43:27;;;;;;;10.33;4.60;;;;;;;3.93;57.05;96999.75;4974469;28;20776;-68
2023/03/28 04:45:54;;;;;;;7.47;4.97;;;;;;;3.99;56.46;97003.19;4976633;28;20268;-66
2023/03/28 04:48:20;;;;;;;12.20;5.63;;;;;;;4.12;56.69;97000.47;4979976;28;20462;-65
2023/03/28 04:50:46;;;;;;;10.90;6.10;;;;;;;4.05;57.04;97010.03;4982847;28;20448;-66
2023/03/28 04:53:12;;;;;;;10.83;6.20;;;;;;;3.91;57.01;97010.16;4994263;28;20185;-66
2023/03/28 04:55:38;;;;;;;10.77;5.13;;;;;;;3.98;56.84;97006.63;4988036;28;20535;-66
2023/03/28 04:58:04;;;;;;;10.37;4.70;;;;;;;3.96;56.92;97017.91;4981732;28;20287;-66
2023/03/28 05:00:30;;;;;;;13.03;5.40;;;;;;;4.04;57.30;97023.91;4977639;28;21218;-67
2023/03/28 05:02:58;;;;;;;6.73;5.00;;;;;;;3.99;57.03;97021.34;4984650;28;20447;-65
2023/03/28 05:05:24;;;;;;;16.73;5.50;;;;;;;3.94;57.27;97024.84;4985808;28;20796;-65
2023/03/28 05:07:50;;;;;;;12.03;5.07;;;;;;;3.94;57.29;97025.69;4980301;28;20480;-66
2023/03/28 05:10:15;;;;;;;6.60;4.30;;;;;;;3.97;57.31;97030.03;4975393;28;20459;-66
2023/03/28 05:12:41;;;;;;;10.13;5.60;;;;;;;3.82;57.59;97037.03;4976798;28;20264;-67
2023/03/28 05:15:07;;;;;;;5.70;4.83;;;;;;;3.95;57.33;97040.41;4975759;28;20632;-68
2023/03/28 05:17:32;;;;;;;17.17;5.70;;;;;;;3.92;57.57;97044.75;4983474;28;20276;-67
2023/03/28 05:19:58;;;;;;;12.13;5.93;;;;;;;3.87;57.99;97049.97;4975898;28;20216;-65
2023/03/28 05:22:23;;;;;;;13.27;6.17;;;;;;;3.87;58.11;97047.38;4973877;28;20236;-66
2023/03/28 05:24:49;;;;;;;13.13;7.20;;;;;;;3.74;58.57;97051.81;4965708;28;20197;-69
2023/03/28 05:27:16;;;;;;;16.57;6.03;;;;;;;3.39;59.51;97057.22;4980895;28;20262;-66
2023/03/28 05:29:41;;;;;;;9.40;5.10;;;;;;;3.60;58.84;97057.09;4978701;28;20210;-67
2023/03/28 05:32:07;;;;;;;10.30;7.40;;;;;;;3.79;58.42;97064.78;4978623;28;20432;-66
2023/03/28 05:34:34;;;;;;;12.20;6.70;;;;;;;3.74;58.68;97069.13;4983604;28;20600;-67
2023/03/28 05:37:00;;;;;;;14.30;6.20;;;;;;;3.75;58.67;97071.69;4984749;28;21122;-67
2023/03/28 05:39:26;;;;;;;9.13;4.83;;;;;;;3.67;58.84;97070.03;4984787;28;20416;-66
2023/03/28 05:41:52;;;;;;;10.40;5.70;;;;;;;4.01;57.65;97075.84;4985238;28;20188;-68
2023/03/28 05:44:17;;;;;;;12.23;6.57;;;;;;;4.06;57.21;97074.09;4985069;28;21337;-69
2023/03/28 05:46:43;;;;;;;6.40;5.50;;;;;;;4.03;57.99;97074.13;4976243;28;20209;-68
2023/03/28 05:49:08;;;;;;;5.87;5.37;;;;;;;3.66;58.83;97084.75;4981548;28;20622;-67
2023/03/28 05:51:33;;;;;;;8.70;6.33;;;;;;;3.72;58.72;97086.44;4977973;28;20232;-70
2023/03/28 05:53:59;;;;;;;8.40;6.10;;;;;;;3.90;58.51;97086.34;4977678;28;20261;-68
2023/03/28 05:56:24;;;;;;;7.80;5.80;;;;;;;4.73;56.11;97082.19;4980969;28;20188;-67
2023/03/28 05:58:50;;;;;;;10.20;5.63;;;;;;;4.74;55.78;97095.16;4974275;28;20279;-67
2023/03/28 06:01:22;;;;;;;8.80;5.07;;;;;;;4.71;55.24;97100.41;4974968;28;20257;-66
2023/03/28 06:03:48;;;;;;;7.00;5.17;;;;;;;4.86;55.03;97108.03;4981297;28;20193;-66
2023/03/28 06:06:14;;;;;;;9.10;5.77;;;;;;;4.74;55.09;97102.97;4973430;28;20483;-68
2023/03/28 06:08:40;;;;;;;9.00;5.90;;;;;;;6.19;51.70;97099.47;4972013;28;20448;-66
2023/03/28 06:11:06;;;;;;;9.47;7.40;;;;;;;5.86;51.45;97093.00;4979720;28;20185;-68
2023/03/28 06:13:32;;;;;;;9.23;5.10;;;;;;;7.30;48.39;97087.97;4971408;28;20251;-66
2023/03/28 06:15:58;;;;;;;14.23;6.20;;;;;;;8.60;44.31;97085.97;4968858;28;20435;-67
2023/03/28 06:18:23;;;;;;;10.70;5.37;;;;;;;8.32;44.62;97091.84;4973891;28;20642;-68
2023/03/28 06:20:49;;;;;;;20.47;6.27;;;;;;;9.04;42.88;97092.66;4977222;28;20185;-67
2023/03/28 06:23:15;;;;;;;21.43;7.57;;;;;;;9.52;40.64;97092.22;4969025;28;20580;-67
2023/03/28 06:25:40;;;;;;;17.20;6.77;;;;;;;10.71;38.65;97084.19;4973335;28;20662;-66
2023/03/28 06:28:06;;;;;;;20.00;7.00;;;;;;;10.77;37.75;97089.25;4977914;28;20283;-67
2023/03/28 06:30:31;;;;;;;16.03;5.97;;;;;;;11.18;36.74;97086.09;4976414;28;20668;-67
2023/03/28 06:32:56;;;;;;;19.87;8.03;;;;;;;11.33;36.37;97087.31;4982908;28;20280;-69
2023/03/28 06:35:22;;;;;;;10.80;5.77;;;;;;;11.52;35.74;97092.75;4974883;28;20218;-67
2023/03/28 06:37:47;;;;;;;12.43;6.10;;;;;;;11.55;36.12;97085.63;4981189;28;20200;-68
2023/03/28 06:40:13;;;;;;;9.33;5.80;;;;;;;11.20;36.14;97087.75;4984662;28;20205;-68
2023/03/28 06:42:38;;;;;;;10.90;7.00;;;;;;;9.59;38.86;97098.13;4984332;28;20607;-66
2023/03/28 06:45:04;;;;;;;7.87;5.40;;;;;;;10.16;37.28;97099.91;4984329;28;20187;-65
2023/03/28 06:47:30;;;;;;;8.97;5.53;;;;;;;9.95;38.07;97097.94;4983389;28;20279;-66
2023/03/28 06:49:55;;;;;;;8.60;5.97;;;;;;;9.37;39.29;97100.47;4984771;28;20936;-68
2023/03/28 06:52:22;;;;;;;7.60;5.57;;;;;;;9.48;39.23;97103.66;4985354;28;20638;-66
2023/03/28 06:54:47;;;;;;;8.57;5.27;;;;;;;8.78;39.27;97111.66;4986000;28;20238;-69
2023/03/28 06:57:13;;;;;;;10.50;5.73;;;;;;;8.12;41.49;97115.81;5000689;28;20448;-67
2023/03/28 06:59:38;;;;;;;7.37;5.77;;;;;;;7.72;42.19;97118.44;4984659;28;20188;-68
2023/03/28 07:02:04;;;;;;;8.80;5.60;;;;;;;8.83;40.48;97108.91;4975805;28;20173;-67
2023/03/28 07:04:31;;;;;;;8.43;5.20;;;;;;;9.16;39.34;97108.94;4979973;28;20314;-68
2023/03/28 07:06:57;;;;;;;7.30;5.63;;;;;;;8.20;41.24;97124.34;4985366;28;20212;-67
2023/03/28 07:09:22;;;;;;;9.13;4.63;;;;;;;7.75;41.50;97123.63;5000186;28;20448;-68
2023/03/28 07:11:47;;;;;;;14.30;5.53;;;;;;;7.61;42.33;97132.59;4983183;28;20177;-69
2023/03/28 07:14:13;;;;;;;11.93;5.10;;;;;;;8.08;40.88;97135.09;4980248;28;20185;-67
2023/03/28 07:16:38;;;;;;;11.37;5.30;;;;;;;8.35;40.46;97136.22;4995623;28;20220;-66
2023/03/28 07:19:04;;;;;;;5.83;4.10;;;;;;;8.31;39.86;97131.09;4987031;28;20176;-68
2023/03/28 07:21:29;;;;;;;9.10;4.90;;;;;;;8.54;40.20;97136.66;4990298;28;20183;-65
2023/03/28 07:23:57;;;;;;;5.80;4.83;;;;;;;9.03;38.40;97130.22;4990406;28;20698;-67
2023/03/28 07:26:22;;;;;;;9.70;4.27;;;;;;;9.60;37.50;97126.03;4989951;28;20325;-67
2023/03/28 07:28:48;;;;;;;6.30;4.37;;;;;;;10.43;37.44;97134.09;4983970;28;20439;-69
2023/03/28 07:31:14;;;;;;;7.70;4.93;;;;;;;10.38;35.45;97131.59;4996736;28;20192;-67
2023/03/28 07:33:40;;;;;;;8.30;4.67;;;;;;;10.48;35.02;97131.31;4980360;28;20187;-66
2023/03/28 07:36:15;;;;;;;9.10;3.53;;;;;;;10.48;35.64;97139.19;4983244;28;20436;-67
2023/03/28 07:38:40;;;;;;;8.90;4.47;;;;;;;10.92;34.84;97140.38;4986073;28;20180;-70
2023/03/28 07:41:06;;;;;;;11.83;4.63;;;;;;;11.04;34.60;97139.09;4986306;28;20450;-67
2023/03/28 07:43:32;;;;;;;12.50;4.90;;;;;;;10.21;35.74;97151.38;4978443;28;20189;-67
2023/03/28 07:46:09;;;;;;;9.50;4.20;;;;;;;9.88;36.20;97154.94;4986810;28;20565;-66
2023/03/28 07:48:36;;;;;;;5.93;4.13;;;;;;;9.29;36.97;97157.47;4986185;28;20547;-67
2023/03/28 07:51:05;;;;;;;14.47;5.17;;;;;;;9.22;37.46;97156.78;4985998;28;20468;-68
2023/03/28 07:53:31;;;;;;;8.27;5.40;;;;;;;8.78;38.05;97157.91;4989042;28;20521;-67
2023/03/28 07:55:57;;;;;;;9.17;4.63;;;;;;;9.20;38.36;97165.56;4988084;28;20440;-69
2023/03/28 07:58:22;;;;;;;8.47;4.33;;;;;;;9.41;37.78;97159.75;4981333;28;20439;-67
2023/03/28 08:00:48;;;;;;;4.73;3.90;;;;;;;8.89;38.81;97168.97;4982953;28;20189;-65
2023/03/28 08:03:15;;;;;;;8.03;3.80;;;;;;;8.55;38.60;97164.56;4975823;28;20604;-68
2023/03/28 08:05:42;;;;;;;7.73;4.63;;;;;;;8.26;39.42;97176.50;4974869;28;20208;-68
2023/03/28 08:08:07;;;;;;;5.77;3.93;;;;;;;8.40;39.47;97170.13;4979891;28;20629;-68
2023/03/28 08:10:34;;;;;;;12.03;4.80;;;;;;;8.82;38.77;97157.78;4980094;28;20503;-68
2023/03/28 08:12:59;;;;;;;6.10;4.30;;;;;;;9.99;36.87;97162.47;4982231;28;20188;-68
2023/03/28 08:15:25;;;;;;;8.53;3.80;;;;;;;10.66;35.04;97162.22;4985509;28;20433;-68
2023/03/28 08:17:50;;;;;;;8.23;3.57;;;;;;;10.17;35.24;97153.22;4983428;28;20220;-68
2023/03/28 08:20:18;;;;;;;6.30;3.40;;;;;;;10.30;35.23;97159.84;4985186;28;20181;-67
2023/03/28 08:22:44;;;;;;;6.37;3.20;;;;;;;9.95;36.03;97156.47;4975878;28;20193;-69
2023/03/28 08:25:10;;;;;;;8.80;4.60;;;;;;;9.59;36.73;97162.75;4978437;28;20447;-68
2023/03/28 08:27:35;;;;;;;5.50;4.10;;;;;;;8.95;38.60;97174.03;4979072;28;20686;-68
2023/03/28 08:30:00;;;;;;;7.80;5.40;;;;;;;8.92;38.87;97163.66;4985462;28;20391;-68
2023/03/28 08:32:26;;;;;;;11.77;4.10;;;;;;;9.50;36.81;97159.50;4986133;28;20221;-68
2023/03/28 08:34:52;;;;;;;6.97;3.50;;;;;;;10.03;35.07;97164.13;4986230;28;20188;-68
2023/03/28 08:37:18;;;;;;;10.80;4.03;;;;;;;10.64;34.15;97157.94;4975433;28;20208;-69
2023/03/28 08:39:44;;;;;;;8.43;3.70;;;;;;;11.49;33.24;97159.44;4987439;28;20181;-69
2023/03/28 08:42:18;;;;;;;9.70;4.17;;;;;;;10.98;33.37;97161.19;4986190;28;20444;-68
2023/03/28 08:44:59;;;;;;;8.63;3.23;;;;;;;10.62;33.28;97165.00;4984486;28;21196;-67
2023/03/28 08:47:28;;;;;;;7.63;3.20;;;;;;;10.22;33.87;97174.91;4974851;28;20463;-69
2023/03/28 08:50:12;;;;;;;8.73;4.20;;;;;;;9.63;34.56;97174.88;4980400;28;20454;-67
2023/03/28 08:52:39;;;;;;;7.45;3.70;;;;;;;9.61;35.44;97171.44;4981309;28;20452;-68
2023/03/28 08:55:15;;;;;;;7.63;3.50;;;;;;;9.69;34.99;97177.34;4985305;28;20235;-69
2023/03/28 08:57:42;;;;;;;10.47;3.63;;;;;;;9.81;33.79;97184.00;4972370;28;20444;-68
2023/03/28 09:00:13;;;;;;;5.30;3.70;;;;;;;9.90;34.38;97168.88;4979894;28;20474;-68
2023/03/28 09:02:40;;;;;;;5.90;2.60;;;;;;;9.80;34.14;97166.53;4974757;28;20543;-68
2023/03/28 09:05:09;;;;;;;4.70;3.23;;;;;;;10.39;32.92;97171.81;4983191;28;21298;-68
2023/03/28 09:07:45;;;;;;;11.30;3.23;;;;;;;9.35;32.88;97166.91;4981536;28;20913;-68
2023/03/28 09:10:34;;;;;;;4.83;2.90;;;;;;;9.95;33.49;97176.59;4980463;28;20534;-69
2023/03/28 09:13:06;;;;;;;8.05;3.60;;;;;;;10.66;32.51;97170.09;4973785;28;20855;-67
2023/03/28 09:15:40;;;;;;;6.37;3.40;;;;;;;10.32;32.88;97172.91;4977042;28;20184;-68
2023/03/28 09:18:11;;;;;;;8.50;3.77;;;;;;;9.89;33.76;97177.63;4986302;28;21305;-69
2023/03/28 09:21:09;;;;;;;9.90;4.13;;;;;;;9.56;33.39;97178.56;4986433;28;20533;-69
2023/03/28 09:23:50;;;;;;;19.27;3.50;;;;;;;9.31;33.30;97185.34;4976540;28;20437;-67
2023/03/28 09:26:19;;;;;;;11.90;2.83;;;;;;;9.50;33.52;97177.84;4977980;28;20560;-68
2023/03/28 09:28:58;;;;;;;8.93;3.13;;;;;;;9.73;32.24;97177.22;4983894;28;20440;-66
2023/03/28 09:31:34;;;;;;;11.23;2.80;;;;;;;10.43;31.51;97169.97;4983154;28;20796;-67
2023/03/28 09:34:01;;;;;;;6.90;2.33;;;;;;;10.37;30.57;97169.25;4984989;28;20778;-69
2023/03/28 09:36:30;;;;;;;6.43;2.20;;;;;;;10.94;30.19;97164.81;4979227;28;20535;-66
2023/03/28 09:38:59;;;;;;;2.40;2.20;;;;;;;11.73;29.47;97170.00;4977054;28;20436;-68
2023/03/28 09:41:51;;;;;;;6.83;3.10;;;;;;;11.34;29.32;97167.84;4980679;28;20437;-67
2023/03/28 09:44:22;;;;;;;4.03;2.90;;;;;;;10.45;30.74;97169.00;4981249;28;20443;-67
2023/03/28 09:46:48;;;;;;;3.90;2.23;;;;;;;10.33;31.16;97166.78;4980652;28;21106;-67
2023/03/28 09:49:19;;;;;;;8.70;3.30;;;;;;;10.04;31.30;97170.22;4977081;28;20433;-67
2023/03/28 09:51:45;;;;;;;7.67;2.80;;;;;;;9.80;31.65;97172.66;4975373;28;20183;-69
2023/03/28 09:54:11;;;;;;;7.00;3.43;;;;;;;9.82;31.64;97183.09;4978338;28;20435;-68
2023/03/28 09:56:43;;;;;;;5.00;3.43;;;;;;;10.34;31.57;97177.19;4983153;28;20674;-67
2023/03/28 09:59:29;;;;;;;6.50;3.13;;;;;;;10.29;30.88;97173.88;4981471;28;20547;-68
2023/03/28 10:01:56;;;;;;;9.00;2.70;;;;;;;9.79;31.31;97173.56;4981418;28;20435;-67
2023/03/28 10:04:27;;;;;;;5.47;3.20;;;;;;;9.64;31.53;97171.38;4976484;28;20436;-66
2023/03/28 10:06:55;;;;;;;8.50;2.47;;;;;;;9.79;30.94;97172.72;4979974;28;20495;-67
2023/03/28 10:09:27;;;;;;;5.70;2.90;;;;;;;9.64;31.48;97163.53;4981643;28;20451;-66
2023/03/28 10:11:58;;;;;;;2.70;2.10;;;;;;;9.50;30.35;97156.88;4977086;28;20433;-67
2023/03/28 10:14:37;;;;;;;5.22;2.50;;;;;;;10.54;29.99;97160.00;4981226;28;20494;-66
2023/03/28 10:17:19;;;;;;;3.87;2.90;;;;;;;11.04;28.16;97148.75;4979556;28;20268;-67
2023/03/28 10:19:47;;;;;;;3.43;2.37;;;;;;;11.30;28.45;97138.22;4971325;28;20510;-67
2023/03/28 10:22:26;;;;;;;8.50;2.73;;;;;;;11.71;28.96;97146.38;4999032;28;20432;-66
2023/03/28 10:24:52;;;;;;;5.67;2.53;;;;;;;11.63;27.03;97149.28;4984064;28;20510;-68
2023/03/28 10:27:26;;;;;;;3.60;2.40;;;;;;;10.92;28.25;97140.38;4980445;28;20471;-68
2023/03/28 10:29:55;;;;;;;6.90;2.77;;;;;;;10.66;28.16;97145.63;4983825;28;20432;-66
2023/03/28 10:32:26;;;;;;;5.57;2.53;;;;;;;10.44;28.09;97145.44;4982001;28;20436;-65
2023/03/28 10:35:14;;;;;;;5.50;2.70;;;;;;;10.27;28.51;97148.56;4974751;28;20500;-67
2023/03/28 10:37:41;;;;;;;7.45;2.67;;;;;;;10.28;29.14;97151.16;4981121;28;20425;-67
2023/03/28 10:40:25;;;;;;;4.35;2.60;;;;;;;10.81;29.05;97143.34;4972094;28;20957;-65
2023/03/28 10:42:51;;;;;;;6.03;2.47;;;;;;;10.49;28.89;97152.28;4980805;28;20288;-66
2023/03/28 10:45:41;;;;;;;7.13;2.80;;;;;;;9.95;28.89;97143.38;4967433;28;20433;-68
2023/03/28 10:48:15;;;;;;;13.30;2.70;;;;;;;10.23;30.04;97142.56;4978091;28;20720;-66
2023/03/28 10:50:47;;;;;;;14.13;5.03;;;;;;;11.51;28.73;97135.75;4983241;28;20450;-70
2023/03/28 10:53:36;;;;;;;5.27;2.77;;;;;;;11.52;27.75;97127.78;4969215;28;20440;-68
2023/03/28 10:56:07;;;;;;;10.17;6.27;;;;;;;12.15;27.21;97125.47;4979806;28;20535;-68
2023/03/28 10:58:58;;;;;;;4.33;3.60;;;;;;;12.22;26.65;97121.69;4981790;28;20503;-68
2023/03/28 11:01:38;;;;;;;4.70;2.70;;;;;;;11.94;27.58;97126.31;4978888;28;20499;-68
2023/03/28 11:04:27;;;;;;;2.53;1.97;;;;;;;10.90;26.86;97115.94;4982317;28;20216;-68
2023/03/28 11:06:59;;;;;;;18.73;3.10;;;;;;;11.78;27.11;97118.09;4982452;28;20557;-68
2023/03/28 11:09:48;;;;;;;9.90;2.73;;;;;;;12.04;26.73;97111.88;4980852;28;20432;-68
2023/03/28 11:12:32;;;;;;;16.67;3.03;;;;;;;12.13;26.22;97115.94;4980689;28;20428;-67
2023/03/28 11:15:01;;;;;;;10.57;2.73;;;;;;;12.13;26.56;97121.19;4986615;28;20467;-67
2023/03/28 11:17:51;;;;;;;8.30;2.88;;;;;;;12.04;27.00;97123.25;4986809;28;20514;-65
2023/03/28 11:20:59;;;;;;;6.93;3.63;;;;;;;11.85;26.87;97116.94;4983708;28;20224;-66
2023/03/28 11:23:52;;;;;;;8.17;2.87;;;;;;;11.07;27.66;97115.34;4945415;28;20509;-66
2023/03/28 11:26:28;;;;;;;6.00;2.80;;;;;;;11.43;27.90;97109.72;4981384;28;20550;-67
2023/03/28 11:29:45;;;;;;;4.10;2.97;;;;;;;11.90;27.35;97114.19;4986816;28;20537;-67
2023/03/28 11:32:13;;;;;;;17.47;4.70;;;;;;;12.00;26.71;97108.53;4986225;28;20456;-66
2023/03/28 11:34:55;;;;;;;4.70;2.77;;;;;;;11.51;27.27;97110.31;4982434;28;20428;-66
2023/03/28 11:37:35;;;;;;;6.40;3.27;;;;;;;11.84;26.73;97105.56;4981685;28;21057;-66
2023/03/28 11:40:13;;;;;;;4.20;2.57;;;;;;;11.64;27.16;97108.94;4982306;28;20908;-67
2023/03/28 11:42:49;;;;;;;4.50;2.60;;;;;;;11.38;27.45;97099.34;4982809;28;20444;-67
2023/03/28 11:45:20;;;;;;;6.97;2.93;;;;;;;10.85;27.46;97101.25;4977582;28;20446;-67
2023/03/28 11:48:02;;;;;;;8.53;2.50;;;;;;;11.16;26.61;97093.16;4979866;28;20479;-66
2023/03/28 11:50:41;;;;;;;11.33;3.23;;;;;;;11.55;27.02;97093.53;4986111;28;20443;-66
2023/03/28 11:53:16;;;;;;;6.70;2.87;;;;;;;11.55;25.93;97090.00;4986596;28;20447;-68
2023/03/28 11:55:49;;;;;;;4.87;2.77;;;;;;;10.99;26.73;97086.72;4982648;28;20502;-67